Terminal Aerodrome Forecast
Issued by NWS

Home | Current Version | Previous Version | Graphics & Text | Print | Product List | Glossary On
Versions: 1 2 3 4 5 6 7 8 9 10 11 12 13
405
FTUS43 KABR 251114 AAB
TAFMBG
TAF AMD
KMBG 251114Z 2511/2606 30017G33KT P6SM OVC020
     FM251500 31025G37KT P6SM SCT140
     FM252300 32019G28KT P6SM SKC
     FM260200 31011G18KT P6SM SKC
     FM260400 31007KT P6SM SKC=

USA.gov is the U.S. government's official web portal to all federal, state and local government web resources and services.